Time;durP1;ratioP1;P1;durP2;ratioP2;P2;SDS_P1;SDS_P2;PMS_P1;PMS_P2;Temp;Humidity;BMP_temperature;BMP_pressure;BME280_temperature;BME280_humidity;BME280_pressure;Samples;Min_cycle;Max_cycle;Signal;HPM_P1;HPM_P2
2022/09/02 00:00:36;;;;;;;6.22;1.73;;;;;;;19.37;44.01;101562.88;6306041;22;20026;-61
2022/09/02 00:03:01;;;;;;;1.92;1.67;;;;;;;19.34;43.91;101555.00;6306053;22;20041;-60
2022/09/02 00:05:28;;;;;;;5.05;1.70;;;;;;;19.20;44.32;101559.63;6307035;22;20347;-61
2022/09/02 00:07:53;;;;;;;3.72;1.63;;;;;;;19.15;44.80;101556.84;6306395;22;20408;-61
2022/09/02 00:10:19;;;;;;;4.53;1.92;;;;;;;19.12;44.69;101557.44;6306115;22;20012;-60
2022/09/02 00:12:44;;;;;;;3.95;2.10;;;;;;;19.10;45.04;101548.47;6306324;22;20010;-60
2022/09/02 00:15:12;;;;;;;5.50;2.03;;;;;;;19.06;45.19;101553.84;6306335;22;20074;-61
2022/09/02 00:17:37;;;;;;;4.05;2.03;;;;;;;19.07;44.50;101549.03;6306350;22;20015;-61
2022/09/02 00:20:03;;;;;;;5.05;2.00;;;;;;;19.05;45.17;101546.50;6306605;22;20012;-61
2022/09/02 00:22:28;;;;;;;6.18;1.83;;;;;;;19.04;44.88;101544.81;6305743;22;20015;-61
2022/09/02 00:24:53;;;;;;;6.32;1.80;;;;;;;18.99;45.16;101541.22;6306740;22;20074;-61
2022/09/02 00:27:19;;;;;;;4.32;1.92;;;;;;;19.00;45.07;101538.09;6306099;22;20003;-60
2022/09/02 00:29:44;;;;;;;4.28;1.77;;;;;;;18.97;44.98;101537.84;6305974;22;20027;-60
2022/09/02 00:32:09;;;;;;;4.03;1.90;;;;;;;18.95;45.21;101540.13;6305484;22;20000;-60
2022/09/02 00:34:35;;;;;;;4.05;1.88;;;;;;;18.91;44.88;101533.41;6306261;22;20027;-60
2022/09/02 00:37:00;;;;;;;5.00;1.98;;;;;;;18.85;45.21;101541.88;6305576;22;20454;-60
2022/09/02 00:39:26;;;;;;;3.78;1.80;;;;;;;18.83;45.96;101546.97;6306727;22;20067;-60
2022/09/02 00:41:51;;;;;;;6.00;2.05;;;;;;;18.88;45.48;101535.66;6306332;22;20316;-60
2022/09/02 00:44:18;;;;;;;4.15;2.65;;;;;;;18.77;45.85;101538.84;6305743;22;20331;-61
2022/09/02 00:46:44;;;;;;;4.00;2.20;;;;;;;18.72;45.70;101531.28;6306191;22;20073;-60
2022/09/02 00:49:31;;;;;;;5.03;2.20;;;;;;;18.83;45.33;101532.91;6305639;22;20357;-60
2022/09/02 00:52:06;;;;;;;3.47;2.20;;;;;;;18.68;46.08;101538.59;6305472;22;20022;-60
2022/09/02 00:54:38;;;;;;;3.58;2.05;;;;;;;18.69;45.74;101537.44;6305733;22;20011;-60
2022/09/02 00:57:10;;;;;;;5.68;2.33;;;;;;;18.65;46.59;101533.53;6306015;22;19999;-60
2022/09/02 00:59:57;;;;;;;8.25;2.75;;;;;;;18.71;45.95;101542.84;6305859;22;20077;-60
2022/09/02 01:02:24;;;;;;;5.28;2.00;;;;;;;18.66;46.03;101532.41;6305986;22;20007;-60
2022/09/02 01:04:55;;;;;;;4.45;2.30;;;;;;;18.62;46.14;101526.53;6305510;22;20042;-60
2022/09/02 01:07:21;;;;;;;5.63;2.00;;;;;;;18.61;46.23;101536.09;6306439;22;20011;-60
2022/09/02 01:09:50;;;;;;;3.58;1.85;;;;;;;18.60;46.29;101519.53;6304804;22;20383;-60
2022/09/02 01:12:15;;;;;;;5.50;2.10;;;;;;;18.56;46.60;101522.06;6305271;22;20022;-60
2022/09/02 01:14:41;;;;;;;5.78;2.38;;;;;;;18.63;45.78;101519.78;6306362;22;20496;-61
2022/09/02 01:17:07;;;;;;;3.83;2.10;;;;;;;18.59;46.26;101520.66;6304778;22;20331;-60
2022/09/02 01:19:38;;;;;;;7.75;2.10;;;;;;;18.57;46.39;101517.28;6305481;22;20019;-60
2022/09/02 01:22:14;;;;;;;3.55;1.88;;;;;;;18.53;46.42;101528.28;6306122;22;19999;-60
2022/09/02 01:24:40;;;;;;;3.55;2.03;;;;;;;18.53;46.25;101521.81;6305849;22;20061;-60
2022/09/02 01:27:05;;;;;;;5.00;2.40;;;;;;;18.49;46.51;101515.94;6305523;22;19999;-60
2022/09/02 01:29:30;;;;;;;4.93;2.08;;;;;;;18.41;46.84;101519.34;6306118;22;20057;-60
2022/09/02 01:31:56;;;;;;;4.60;2.13;;;;;;;18.42;46.53;101517.38;6305910;22;20042;-61
2022/09/02 01:34:22;;;;;;;6.25;2.20;;;;;;;18.41;46.90;101513.72;6306043;22;20074;-61
2022/09/02 01:36:53;;;;;;;3.10;1.88;;;;;;;18.40;46.63;101517.69;6305460;22;20033;-60
2022/09/02 01:39:18;;;;;;;8.77;2.53;;;;;;;18.34;46.62;101514.03;6306257;22;20351;-59
2022/09/02 01:41:44;;;;;;;4.13;2.35;;;;;;;18.35;46.59;101515.75;6305093;22;20014;-60
2022/09/02 01:44:09;;;;;;;7.38;2.60;;;;;;;18.32;46.72;101513.50;6305986;22;20069;-61
2022/09/02 01:46:35;;;;;;;3.22;2.30;;;;;;;18.32;46.90;101504.25;6304312;22;20011;-60
2022/09/02 01:49:00;;;;;;;4.38;2.28;;;;;;;18.30;46.87;101501.69;6305932;22;20007;-61
2022/09/02 01:51:28;;;;;;;4.03;2.35;;;;;;;18.25;46.60;101510.16;6305010;22;20035;-61
2022/09/02 01:53:54;;;;;;;3.33;2.20;;;;;;;18.26;46.99;101511.00;6305455;22;20061;-60
2022/09/02 01:56:19;;;;;;;6.63;2.00;;;;;;;18.23;46.94;101503.13;6305653;22;20029;-60
2022/09/02 01:58:44;;;;;;;7.07;2.30;;;;;;;18.22;47.03;101499.50;6305705;22;20007;-60
2022/09/02 02:01:10;;;;;;;3.85;2.30;;;;;;;18.19;47.25;101505.69;6304824;22;20007;-59
2022/09/02 02:03:37;;;;;;;2.95;2.13;;;;;;;18.18;47.21;101500.38;6304048;22;20007;-60
2022/09/02 02:06:10;;;;;;;4.88;2.30;;;;;;;18.12;47.00;101505.19;6305061;22;20007;-60
2022/09/02 02:08:35;;;;;;;4.60;2.40;;;;;;;18.09;47.20;101508.56;6304466;22;20070;-60
2022/09/02 02:11:01;;;;;;;6.85;2.10;;;;;;;18.02;47.49;101508.03;6306164;22;20034;-62
2022/09/02 02:13:26;;;;;;;4.90;2.20;;;;;;;18.02;47.30;101503.25;6305218;22;20003;-60
2022/09/02 02:15:51;;;;;;;3.60;2.05;;;;;;;18.02;47.48;101499.59;6305189;22;20461;-60
2022/09/02 02:18:17;;;;;;;2.80;2.20;;;;;;;18.04;47.32;101505.78;6304897;22;20008;-62
2022/09/02 02:20:43;;;;;;;5.13;2.13;;;;;;;18.00;47.66;101501.84;6305368;22;20026;-60
2022/09/02 02:23:08;;;;;;;4.68;2.13;;;;;;;17.92;47.66;101506.09;6304599;22;20021;-60
2022/09/02 02:25:34;;;;;;;4.65;2.30;;;;;;;17.90;47.90;101506.38;6305451;22;20070;-62
2022/09/02 02:28:00;;;;;;;4.10;2.17;;;;;;;17.87;48.21;101500.50;6305629;22;20010;-60
2022/09/02 02:30:25;;;;;;;7.40;2.75;;;;;;;17.87;48.04;101504.13;6304545;22;20003;-60
2022/09/02 02:32:53;;;;;;;8.85;2.15;;;;;;;17.88;48.10;101505.84;6305679;22;20332;-60
2022/09/02 02:35:19;;;;;;;5.18;2.67;;;;;;;17.86;48.09;101498.81;6305979;22;20003;-60
2022/09/02 02:37:48;;;;;;;7.32;2.70;;;;;;;17.82;48.48;101504.16;6304668;22;20323;-60
2022/09/02 02:40:14;;;;;;;8.00;2.60;;;;;;;17.89;47.31;101495.44;6305596;22;20008;-61
2022/09/02 02:42:39;;;;;;;6.25;2.53;;;;;;;17.86;47.77;101499.66;6305412;22;20422;-60
2022/09/02 02:45:10;;;;;;;6.55;2.60;;;;;;;17.87;48.08;101492.06;6304201;22;20050;-60
2022/09/02 02:47:39;;;;;;;9.70;2.22;;;;;;;17.82;47.91;101489.28;6305231;22;20006;-60
2022/09/02 02:50:11;;;;;;;7.13;2.53;;;;;;;17.82;47.89;101492.94;6304582;22;19999;-60
2022/09/02 02:52:38;;;;;;;4.82;2.45;;;;;;;17.82;48.12;101494.91;6305805;22;20003;-60
2022/09/02 02:55:05;;;;;;;5.28;2.58;;;;;;;17.82;48.36;101486.47;6305130;22;20031;-61
2022/09/02 02:57:32;;;;;;;5.57;2.55;;;;;;;17.81;47.92;101482.84;6304083;22;20426;-60
2022/09/02 03:00:03;;;;;;;4.03;2.33;;;;;;;17.76;48.33;101482.00;6305704;22;19999;-60
2022/09/02 03:02:30;;;;;;;5.85;2.60;;;;;;;17.78;48.28;101488.19;6304153;22;20442;-60
2022/09/02 03:04:55;;;;;;;6.35;2.70;;;;;;;17.84;47.79;101484.22;6304824;22;20010;-60
2022/09/02 03:07:20;;;;;;;6.53;2.75;;;;;;;17.80;47.81;101480.28;6304334;22;20003;-60
2022/09/02 03:09:46;;;;;;;6.25;3.08;;;;;;;17.75;47.98;101478.34;6304851;22;20086;-60
2022/09/02 03:12:11;;;;;;;4.22;2.92;;;;;;;17.75;48.13;101478.34;6304148;22;20368;-60
2022/09/02 03:14:36;;;;;;;6.53;2.65;;;;;;;17.74;48.54;101481.44;6305358;22;20014;-60
2022/09/02 03:17:02;;;;;;;4.45;2.30;;;;;;;17.73;48.46;101489.00;6304494;22;20104;-60
2022/09/02 03:19:28;;;;;;;6.38;2.92;;;;;;;17.73;48.15;101483.41;6304740;22;20007;-61
2022/09/02 03:21:53;;;;;;;7.00;2.55;;;;;;;17.78;48.14;101472.16;6306614;22;20323;-60
2022/09/02 03:24:19;;;;;;;11.43;2.97;;;;;;;17.76;47.88;101480.03;6306656;22;20035;-60
2022/09/02 03:26:45;;;;;;;7.10;3.08;;;;;;;17.73;48.41;101479.75;6306174;22;20323;-60
2022/09/02 03:29:10;;;;;;;8.20;2.65;;;;;;;17.69;48.42;101481.44;6307004;22;20070;-60
2022/09/02 03:31:35;;;;;;;8.50;2.60;;;;;;;17.71;48.33;101479.19;6307363;22;20054;-60
2022/09/02 03:34:01;;;;;;;10.27;3.35;;;;;;;17.65;48.48;101472.75;6305650;22;20077;-60
2022/09/02 03:36:33;;;;;;;7.72;2.42;;;;;;;17.64;48.83;101476.66;6306858;22;20354;-60
2022/09/02 03:38:59;;;;;;;6.70;2.35;;;;;;;17.62;48.12;101471.34;6306649;22;20525;-60
2022/09/02 03:41:25;;;;;;;11.80;2.90;;;;;;;17.59;48.12;101469.09;6306257;22;20064;-61
2022/09/02 03:43:50;;;;;;;6.68;2.70;;;;;;;17.59;48.28;101465.47;6307038;22;20062;-60
2022/09/02 03:46:16;;;;;;;8.27;3.10;;;;;;;17.63;48.25;101461.78;6305332;22;20097;-60
2022/09/02 03:48:42;;;;;;;9.18;3.30;;;;;;;17.60;48.18;101467.13;6306865;22;20026;-60
2022/09/02 03:51:08;;;;;;;10.77;2.60;;;;;;;17.58;48.46;101460.97;6306362;22;20053;-60
2022/09/02 03:53:33;;;;;;;9.35;3.00;;;;;;;17.56;48.44;101463.22;6305920;22;19999;-60
2022/09/02 03:56:10;;;;;;;7.97;2.80;;;;;;;17.57;48.33;101459.31;6307113;22;20840;-60
2022/09/02 03:58:37;;;;;;;4.43;2.95;;;;;;;17.51;48.59;101455.66;6306187;22;20003;-60
2022/09/02 04:01:03;;;;;;;8.95;2.88;;;;;;;17.51;48.31;101461.28;6306675;22;20297;-60
2022/09/02 04:03:29;;;;;;;7.70;2.83;;;;;;;17.48;48.65;101455.38;6306141;22;20386;-61
2022/09/02 04:05:54;;;;;;;7.25;2.90;;;;;;;17.51;48.74;101450.03;6306741;22;20012;-61
2022/09/02 04:08:19;;;;;;;14.00;3.10;;;;;;;17.47;48.93;101453.72;6305579;22;20015;-61
2022/09/02 04:10:45;;;;;;;5.97;3.20;;;;;;;17.43;49.02;101453.44;6306324;22;20035;-60
2022/09/02 04:13:10;;;;;;;9.95;3.55;;;;;;;17.37;49.28;101449.81;6306535;22;20032;-61
2022/09/02 04:15:43;;;;;;;8.77;3.20;;;;;;;17.34;49.09;101449.53;6305170;22;20090;-60
2022/09/02 04:18:11;;;;;;;9.45;3.35;;;;;;;17.32;49.24;101452.63;6306161;22;20007;-60
2022/09/02 04:20:38;;;;;;;6.72;3.28;;;;;;;17.34;49.13;101447.56;6306199;22;20497;-60
2022/09/02 04:23:03;;;;;;;4.82;3.03;;;;;;;17.30;49.16;101454.03;6305785;22;20049;-60
2022/09/02 04:25:30;;;;;;;4.63;2.78;;;;;;;17.29;49.06;101447.59;6306331;22;20007;-60
2022/09/02 04:27:55;;;;;;;9.18;3.70;;;;;;;17.21;49.53;101452.91;6306614;22;20046;-60
2022/09/02 04:30:21;;;;;;;7.10;3.25;;;;;;;17.24;49.10;101439.16;6305450;22;20003;-60
2022/09/02 04:32:47;;;;;;;10.18;3.88;;;;;;;17.12;49.86;101450.69;6305455;22;20006;-60
2022/09/02 04:35:12;;;;;;;9.90;3.50;;;;;;;17.13;49.92;101437.50;6306537;22;20003;-60
2022/09/02 04:37:41;;;;;;;9.77;3.60;;;;;;;17.15;49.57;101438.91;6305389;22;20454;-61
2022/09/02 04:40:07;;;;;;;9.30;3.40;;;;;;;17.10;50.08;101444.53;6305884;22;20367;-61
2022/09/02 04:42:32;;;;;;;12.15;3.80;;;;;;;17.11;49.98;101435.00;6305064;22;20427;-61
2022/09/02 04:44:58;;;;;;;8.52;3.55;;;;;;;17.12;49.90;101445.06;6305567;22;20003;-60
2022/09/02 04:47:25;;;;;;;15.65;3.53;;;;;;;17.14;49.84;101444.81;6305934;22;20007;-61
2022/09/02 04:49:51;;;;;;;10.52;3.60;;;;;;;17.11;49.60;101440.59;6305170;22;20014;-60
2022/09/02 04:52:16;;;;;;;10.43;3.95;;;;;;;17.19;49.66;101444.78;6306695;22;20075;-61
2022/09/02 04:54:41;;;;;;;17.33;3.80;;;;;;;17.21;49.78;101445.34;6305416;22;20312;-61
2022/09/02 04:57:07;;;;;;;16.08;3.67;;;;;;;17.16;49.73;101443.38;6305689;22;20007;-60
2022/09/02 04:59:35;;;;;;;9.77;3.67;;;;;;;17.28;49.56;101439.44;6305420;22;20057;-60
2022/09/02 05:02:01;;;;;;;14.23;4.15;;;;;;;17.25;49.10;101440.88;6306020;22;20026;-60
2022/09/02 05:04:26;;;;;;;12.93;4.32;;;;;;;17.29;49.04;101441.13;6305262;22;20011;-60
2022/09/02 05:06:56;;;;;;;10.93;4.20;;;;;;;17.25;49.29;101438.06;6305961;22;20075;-60
2022/09/02 05:09:22;;;;;;;13.30;4.18;;;;;;;17.28;49.04;101439.44;6303808;22;20415;-60
2022/09/02 05:11:47;;;;;;;18.10;3.97;;;;;;;17.25;49.88;101435.25;6305257;22;20042;-60
2022/09/02 05:14:14;;;;;;;11.73;3.92;;;;;;;17.28;49.47;101439.44;6304213;22;20074;-60
2022/09/02 05:16:41;;;;;;;15.82;4.28;;;;;;;17.32;49.36;101440.56;6304175;22;20007;-61
2022/09/02 05:19:12;;;;;;;12.57;4.35;;;;;;;17.31;50.14;101438.88;6303433;22;20018;-61
2022/09/02 05:21:39;;;;;;;18.38;4.72;;;;;;;17.27;49.88;101443.38;6305508;22;20011;-61
2022/09/02 05:24:05;;;;;;;11.43;4.75;;;;;;;17.30;49.96;101449.25;6304742;22;20007;-61
2022/09/02 05:26:34;;;;;;;9.57;4.20;;;;;;;17.27;50.31;101444.22;6304787;22;20356;-59
2022/09/02 05:29:01;;;;;;;11.05;4.28;;;;;;;17.31;50.00;101439.72;6305250;22;20049;-61
2022/09/02 05:31:27;;;;;;;11.57;4.60;;;;;;;17.29;51.00;101443.91;6305961;22;20034;-61
2022/09/02 05:33:53;;;;;;;8.32;4.60;;;;;;;17.29;50.17;101450.41;6304454;22;20056;-61
2022/09/02 05:36:21;;;;;;;9.80;4.35;;;;;;;17.33;50.11;101445.03;6304195;22;20111;-61
2022/09/02 05:38:48;;;;;;;13.15;4.63;;;;;;;17.32;49.73;101444.19;6303269;22;20011;-61
2022/09/02 05:41:18;;;;;;;16.50;5.07;;;;;;;17.40;49.76;101443.63;6305983;22;20007;-61
2022/09/02 05:43:44;;;;;;;13.25;5.30;;;;;;;17.37;49.67;101437.72;6304867;22;20003;-61
2022/09/02 05:46:13;;;;;;;10.93;5.15;;;;;;;17.39;50.23;101438.28;6304355;22;20379;-60
2022/09/02 05:51:23;;;;;;;13.82;5.00;;;;;;;17.46;49.73;101441.66;6305157;22;20018;-61
2022/09/02 05:53:56;;;;;;;13.52;4.30;;;;;;;17.48;49.71;101444.16;6303540;22;20454;-59
2022/09/02 05:56:22;;;;;;;13.93;5.35;;;;;;;17.53;49.32;101446.97;6305514;22;20440;-60
2022/09/02 05:58:48;;;;;;;20.42;5.90;;;;;;;17.47;50.03;101446.13;6304541;22;20435;-60
2022/09/02 06:01:18;;;;;;;18.50;5.50;;;;;;;17.51;50.02;101438.81;6304545;22;20010;-62
2022/09/02 06:03:43;;;;;;;17.63;5.75;;;;;;;17.54;49.98;101437.41;6306370;22;20272;-79
2022/09/02 06:06:09;;;;;;;17.80;5.80;;;;;;;17.56;50.16;101437.97;6304670;22;20009;-60
2022/09/02 06:08:35;;;;;;;23.55;6.80;;;;;;;17.54;50.66;101438.25;6303948;22;20008;-60
2022/09/02 06:11:02;;;;;;;23.05;6.25;;;;;;;17.58;50.57;101433.75;6302729;22;20007;-60
2022/09/02 06:13:28;;;;;;;23.20;6.72;;;;;;;17.58;50.48;101436.56;6303494;22;20007;-60
2022/09/02 06:15:54;;;;;;;17.95;7.03;;;;;;;17.58;50.86;101438.53;6304920;22;20105;-60
2022/09/02 06:18:19;;;;;;;20.50;7.75;;;;;;;17.59;50.25;101440.19;6304755;22;20007;-60
2022/09/02 06:20:46;;;;;;;20.48;7.85;;;;;;;17.60;50.57;101439.91;6304934;22;20003;-60
2022/09/02 06:23:13;;;;;;;19.85;8.35;;;;;;;17.62;50.17;101440.47;6304148;22;20049;-60
2022/09/02 06:25:41;;;;;;;17.10;8.05;;;;;;;17.62;50.63;101443.28;6305068;22;20086;-60
2022/09/02 06:28:08;;;;;;;19.10;8.35;;;;;;;17.70;50.14;101441.00;6304892;22;20010;-60
2022/09/02 06:30:34;;;;;;;23.65;8.88;;;;;;;17.70;51.02;101441.00;6305550;22;20011;-60
2022/09/02 06:33:03;;;;;;;20.77;9.43;;;;;;;17.75;50.81;101433.44;6304885;22;20041;-60
2022/09/02 06:35:30;;;;;;;26.25;10.20;;;;;;;17.78;49.69;101430.03;6304859;22;20011;-60
2022/09/02 06:37:56;;;;;;;23.27;10.32;;;;;;;17.76;50.50;101432.28;6304929;22;20006;-60
2022/09/02 06:40:21;;;;;;;23.58;10.43;;;;;;;17.79;49.96;101436.50;6304221;22;20011;-60
2022/09/02 06:42:48;;;;;;;31.23;11.40;;;;;;;17.80;49.48;101441.84;6304755;22;20018;-60
2022/09/02 06:45:13;;;;;;;27.95;11.73;;;;;;;17.87;49.33;101436.72;6304712;22;20019;-60
2022/09/02 06:47:38;;;;;;;26.00;12.73;;;;;;;17.86;49.31;101432.25;6304733;22;20011;-60
2022/09/02 06:50:04;;;;;;;26.75;12.30;;;;;;;17.88;49.31;101429.16;6304576;22;20420;-60
2022/09/02 06:52:30;;;;;;;30.83;13.13;;;;;;;17.91;49.24;101437.84;6304956;22;20003;-60
2022/09/02 06:54:55;;;;;;;26.05;12.85;;;;;;;17.94;49.38;101430.81;6305347;22;20441;-60
2022/09/02 06:57:21;;;;;;;26.95;13.13;;;;;;;17.95;49.10;101428.84;6306314;22;20811;-60
2022/09/02 06:59:46;;;;;;;27.13;13.50;;;;;;;17.97;49.45;101430.25;6307152;22;20003;-60
2022/09/02 07:02:12;;;;;;;30.25;14.20;;;;;;;18.00;49.22;101428.81;6307692;22;20003;-60
2022/09/02 07:07:26;;;;;;;31.33;14.20;;;;;;;18.09;49.00;101424.28;6307242;22;20438;-59
2022/09/02 07:09:54;;;;;;;35.15;15.32;;;;;;;18.09;49.27;101429.91;6306706;22;20007;-60
2022/09/02 07:12:19;;;;;;;32.88;15.82;;;;;;;18.09;49.56;101425.13;6306478;22;20697;-60
2022/09/02 07:14:44;;;;;;;30.75;15.57;;;;;;;18.12;49.38;101415.28;6307012;22;20086;-60
2022/09/02 07:17:16;;;;;;;30.40;15.70;;;;;;;18.13;49.39;101414.97;6307331;22;19999;-60
2022/09/02 07:19:42;;;;;;;33.78;16.27;;;;;;;18.22;49.16;101411.56;6306786;22;20003;-61
2022/09/02 07:22:08;;;;;;;30.80;15.88;;;;;;;18.22;49.38;101417.19;6307370;22;20007;-60
2022/09/02 07:24:34;;;;;;;38.03;17.70;;;;;;;18.27;49.24;101417.97;6305776;22;20010;-60
2022/09/02 07:27:02;;;;;;;38.90;17.88;;;;;;;18.26;49.19;101413.47;6307378;22;20010;-61
2022/09/02 07:29:27;;;;;;;36.83;18.13;;;;;;;18.26;49.84;101409.84;6306330;22;20367;-60
2022/09/02 07:31:52;;;;;;;37.60;17.23;;;;;;;18.30;49.46;101411.78;6306990;22;20346;-60
2022/09/02 07:34:18;;;;;;;33.95;18.60;;;;;;;18.31;49.56;101410.66;6307017;22;20049;-60
2022/09/02 07:36:44;;;;;;;35.67;17.90;;;;;;;18.34;49.12;101412.88;6306575;22;20036;-60
2022/09/02 07:39:11;;;;;;;35.72;18.67;;;;;;;18.35;49.29;101411.75;6306585;22;20082;-60
2022/09/02 07:41:37;;;;;;;34.42;17.17;;;;;;;18.37;49.30;101417.91;6306392;22;20011;-60
2022/09/02 07:44:04;;;;;;;37.58;18.88;;;;;;;18.40;48.77;101408.91;6307070;22;20366;-60
2022/09/02 07:46:31;;;;;;;35.28;17.38;;;;;;;18.46;48.97;101403.22;6306278;22;20007;-60
2022/09/02 07:49:00;;;;;;;38.25;17.83;;;;;;;18.50;48.81;101415.56;6306150;22;20003;-59
2022/09/02 07:51:26;;;;;;;40.63;18.05;;;;;;;18.52;49.07;101407.69;6304689;22;20004;-59
2022/09/02 07:53:52;;;;;;;36.47;18.20;;;;;;;18.53;49.11;101415.81;6305090;22;20014;-59
2022/09/02 07:56:17;;;;;;;33.40;17.23;;;;;;;18.57;48.96;101404.84;6306753;22;20031;-59
2022/09/02 07:58:44;;;;;;;41.72;19.05;;;;;;;18.59;48.89;101414.66;6305967;22;20033;-59
2022/09/02 08:01:11;;;;;;;37.97;19.58;;;;;;;18.64;49.26;101411.81;6306436;22;20012;-60
2022/09/02 08:03:39;;;;;;;36.45;19.45;;;;;;;18.62;49.44;101413.22;6305791;22;20034;-59
2022/09/02 08:06:06;;;;;;;35.15;17.98;;;;;;;18.68;48.73;101408.41;6307092;22;20027;-60
2022/09/02 08:08:31;;;;;;;36.95;18.48;;;;;;;18.70;48.61;101411.75;6306431;22;20007;-60
2022/09/02 08:10:57;;;;;;;37.95;18.55;;;;;;;18.71;48.66;101411.50;6304868;22;20424;-61
2022/09/02 08:13:23;;;;;;;35.50;18.05;;;;;;;18.73;48.61;101406.41;6306203;22;20010;-61
2022/09/02 08:15:48;;;;;;;39.75;19.05;;;;;;;18.74;48.58;101404.44;6306889;22;20014;-61
2022/09/02 08:18:14;;;;;;;35.95;19.50;;;;;;;18.79;48.56;101399.63;6306683;22;20014;-60
2022/09/02 08:20:39;;;;;;;35.38;18.55;;;;;;;18.82;48.81;101401.84;6305117;22;20010;-61
2022/09/02 08:23:05;;;;;;;36.80;18.60;;;;;;;18.82;48.39;101392.53;6306894;22;20007;-60
2022/09/02 08:25:35;;;;;;;35.08;16.88;;;;;;;18.85;48.52;101401.22;6305648;22;20085;-61
2022/09/02 08:28:01;;;;;;;31.42;16.88;;;;;;;18.88;48.52;101397.84;6305564;22;20003;-60
2022/09/02 08:30:26;;;;;;;32.92;17.50;;;;;;;18.92;48.40;101397.25;6306224;22;20007;-60
2022/09/02 08:32:52;;;;;;;38.95;18.50;;;;;;;18.96;48.66;101389.91;6306302;22;20011;-61
2022/09/02 08:35:18;;;;;;;34.60;18.02;;;;;;;18.97;48.71;101392.41;6305187;22;20003;-61
2022/09/02 08:37:44;;;;;;;33.88;17.52;;;;;;;19.01;48.59;101387.84;6306271;22;20003;-61
2022/09/02 08:40:17;;;;;;;30.65;17.25;;;;;;;19.03;48.84;101387.56;6304312;22;20034;-62
2022/09/02 08:42:47;;;;;;;31.92;17.25;;;;;;;19.06;49.07;101393.44;6306096;22;19999;-61
2022/09/02 08:45:37;;;;;;;31.88;17.35;;;;;;;19.09;48.89;101394.81;6306201;22;20022;-61
2022/09/02 08:48:21;;;;;;;33.25;17.60;;;;;;;19.17;48.53;101393.31;6305701;22;20037;-61
2022/09/02 08:50:49;;;;;;;34.33;17.90;;;;;;;19.18;48.61;101395.88;6305453;22;20000;-60
2022/09/02 08:53:29;;;;;;;30.65;16.77;;;;;;;19.25;49.35;101393.50;6305903;22;20003;-61
2022/09/02 08:55:57;;;;;;;34.47;17.90;;;;;;;19.27;49.16;101396.88;6303417;22;20007;-61
2022/09/02 08:58:27;;;;;;;36.03;16.58;;;;;;;19.29;48.84;101397.41;6305603;22;20045;-61
2022/09/02 09:01:06;;;;;;;36.25;17.10;;;;;;;19.33;49.21;101387.22;6304800;22;20110;-61
2022/09/02 09:04:01;;;;;;;36.13;15.02;;;;;;;19.37;48.95;101388.31;6305174;22;20010;-61
2022/09/02 09:06:51;;;;;;;28.77;13.93;;;;;;;19.42;49.09;101395.03;6304997;22;20003;-61
2022/09/02 09:09:42;;;;;;;30.88;14.32;;;;;;;19.48;48.89;101402.25;6305476;22;20423;-61
2022/09/02 09:12:36;;;;;;;29.98;12.25;;;;;;;19.49;48.87;101393.53;6304042;22;20003;-59
2022/09/02 09:15:31;;;;;;;23.42;11.75;;;;;;;19.53;48.82;101397.44;6305897;22;20319;-60
2022/09/02 09:17:58;;;;;;;26.63;12.38;;;;;;;19.56;49.95;101393.16;6283622;22;20018;-60
2022/09/02 09:20:26;;;;;;;26.10;11.98;;;;;;;19.62;49.51;101403.25;6305716;22;20003;-60
2022/09/02 09:22:55;;;;;;;23.35;11.45;;;;;;;19.63;49.09;101402.13;6305264;22;20082;-60
2022/09/02 09:25:28;;;;;;;26.95;11.63;;;;;;;19.68;49.56;101390.78;6304109;22;20618;-60
2022/09/02 09:28:03;;;;;;;25.35;9.88;;;;;;;19.71;48.78;101390.19;6305890;22;20010;-61
2022/09/02 09:30:28;;;;;;;20.67;9.52;;;;;;;19.73;48.56;101390.72;6305269;22;20003;-60
2022/09/02 09:32:59;;;;;;;20.67;8.88;;;;;;;19.76;48.79;101392.09;6304627;22;20021;-60
2022/09/02 09:35:26;;;;;;;16.38;8.07;;;;;;;19.78;48.94;101385.03;6304659;22;20011;-60
2022/09/02 09:37:53;;;;;;;15.25;8.00;;;;;;;19.84;48.43;101392.25;6304751;22;20003;-60
2022/09/02 09:42:54;;;;;;;14.95;7.75;;;;;;;19.93;48.55;101380.31;6305194;22;20008;-60
2022/09/02 09:45:21;;;;;;;14.02;6.95;;;;;;;20.00;48.47;101377.94;6304866;22;20094;-60
2022/09/02 09:48:17;;;;;;;13.65;7.50;;;;;;;20.06;48.42;101373.94;6305670;22;20030;-60
2022/09/02 09:50:47;;;;;;;16.77;7.47;;;;;;;20.18;49.13;101367.81;6301496;22;20011;-60
2022/09/02 09:53:13;;;;;;;15.57;6.65;;;;;;;20.26;49.29;101367.97;6303777;22;20015;-60
2022/09/02 09:55:56;;;;;;;15.27;6.10;;;;;;;20.35;48.42;101368.09;6303973;22;20017;-60
2022/09/02 09:58:27;;;;;;;10.40;5.07;;;;;;;20.39;47.25;101365.50;6303741;22;20574;-60
2022/09/02 10:00:55;;;;;;;10.90;5.10;;;;;;;20.49;47.32;101368.22;6304710;22;20007;-60
2022/09/02 10:03:24;;;;;;;9.30;4.60;;;;;;;20.62;47.72;101364.59;6304477;22;20034;-60
2022/09/02 10:05:54;;;;;;;12.35;4.32;;;;;;;20.72;47.22;101360.78;6304031;22;20017;-60
2022/09/02 10:08:23;;;;;;;9.15;3.05;;;;;;;20.83;46.73;101360.28;6305037;22;20004;-60
2022/09/02 10:11:01;;;;;;;10.57;2.85;;;;;;;20.98;45.94;101352.66;6303759;22;20000;-60
2022/09/02 10:13:32;;;;;;;6.13;2.45;;;;;;;21.11;45.32;101353.84;6303370;22;20312;-60
2022/09/02 10:16:16;;;;;;;8.15;2.63;;;;;;;21.35;46.03;101353.69;6303969;22;20034;-60
2022/09/02 10:19:00;;;;;;;6.68;2.17;;;;;;;21.59;45.53;101348.63;6304050;22;20416;-61
2022/09/02 10:21:59;;;;;;;7.00;2.40;;;;;;;21.70;44.69;101346.44;6304574;22;20018;-61
2022/09/02 10:24:36;;;;;;;6.32;1.98;;;;;;;21.85;43.47;101339.56;6304280;22;20007;-59
2022/09/02 10:27:07;;;;;;;7.15;2.58;;;;;;;22.06;43.46;101335.97;6304033;22;20297;-60
2022/09/02 10:29:49;;;;;;;3.60;2.20;;;;;;;22.19;42.45;101327.78;6304552;22;20011;-61
2022/09/02 10:32:51;;;;;;;6.50;2.40;;;;;;;22.29;42.64;101330.38;6306086;22;20077;-61
2022/09/02 10:35:19;;;;;;;5.20;2.42;;;;;;;22.38;41.69;101328.44;6277429;22;20301;-61
2022/09/02 10:38:11;;;;;;;5.97;2.33;;;;;;;22.42;42.27;101326.63;6306612;22;20371;-60
2022/09/02 10:41:16;;;;;;;6.47;2.30;;;;;;;22.59;42.58;101325.91;6306252;22;20003;-60
2022/09/02 10:43:56;;;;;;;5.35;2.20;;;;;;;22.68;41.32;101317.50;6306177;22;20007;-60
2022/09/02 10:46:24;;;;;;;5.32;2.10;;;;;;;22.84;40.92;101321.59;6306324;22;20324;-60
2022/09/02 10:49:15;;;;;;;4.15;2.00;;;;;;;23.00;41.17;101322.84;6305708;22;20324;-60
2022/09/02 10:51:51;;;;;;;4.93;2.03;;;;;;;22.99;38.62;101321.19;6304833;22;20078;-60
2022/09/02 10:54:48;;;;;;;4.78;2.00;;;;;;;23.03;39.75;101313.72;6306330;22;20007;-60
2022/09/02 10:57:20;;;;;;;5.25;2.03;;;;;;;23.10;38.45;101313.22;6306057;22;20011;-60
2022/09/02 11:00:09;;;;;;;4.22;2.40;;;;;;;23.17;39.06;101310.75;6305484;22;20018;-61
2022/09/02 11:03:06;;;;;;;4.88;1.88;;;;;;;23.25;39.28;101309.13;6306206;22;19999;-60
2022/09/02 11:05:46;;;;;;;8.85;2.00;;;;;;;23.33;38.09;101304.66;6294693;22;20086;-61
2022/09/02 11:08:22;;;;;;;4.97;2.13;;;;;;;23.40;37.43;101308.69;6306507;22;20421;-60
2022/09/02 11:11:20;;;;;;;4.65;2.10;;;;;;;23.40;38.59;101299.34;6278798;22;20090;-60
2022/09/02 11:13:51;;;;;;;3.03;2.15;;;;;;;23.42;37.49;101297.88;6305786;22;20011;-60
2022/09/02 11:16:23;;;;;;;2.60;2.00;;;;;;;23.48;36.81;101293.69;6305538;22;20007;-60
2022/09/02 11:19:15;;;;;;;3.13;1.80;;;;;;;23.54;37.12;101294.41;6305301;22;20003;-62
2022/09/02 11:22:23;;;;;;;3.72;2.40;;;;;;;23.63;37.73;101283.91;6306820;22;20003;-59
2022/09/02 11:25:09;;;;;;;4.22;2.30;;;;;;;23.67;37.21;101270.75;6305633;22;20007;-60
2022/09/02 11:27:49;;;;;;;3.47;1.67;;;;;;;23.77;36.93;101272.41;6306253;22;20038;-60
2022/09/02 11:30:20;;;;;;;4.30;2.20;;;;;;;23.78;36.23;101274.13;6306714;22;20007;-60
2022/09/02 11:33:03;;;;;;;2.70;1.67;;;;;;;23.80;36.08;101268.09;6306652;22;20042;-60
2022/09/02 11:35:35;;;;;;;5.32;2.50;;;;;;;23.81;35.52;101264.09;6304970;22;20090;-61
2022/09/02 11:38:30;;;;;;;3.35;2.08;;;;;;;23.83;36.83;101267.44;6306457;22;19999;-60